In Rescue
 
Open Full Screen Window  High Contrast Mode
Wind Gusting 00 knots
04
July 25, 2021 8:05 AM EDT
Weather Information
Wind Direction
  250 °
Wind Speed
  04 kt (5 mph)
Wind Gust
  00 kt (0 mph)
Altimeter
29.89 in
Visibility
10 SM
Temperature
20° C
68° F
Dewpoint
20° C
68° F
Humidity
100%
1hr Rain Fall
00.00 in.
24hr Rain Fall
00.69 in.
Sky Condition
Clear
VFR

METAR KMOP 251205Z AUTO 25004KT 10SM CLR 20/20 A2989 RMK AO2 T01960195

FAA Disclaimer: The data displayed is for advisory purposes only and is not to be used for flight planning or operations.